createdAt,value
2017-02-13T00:00:33.700Z,1036.41
2017-02-13T00:01:34.408Z,1036.47
2017-02-13T00:02:35.101Z,1036.45
2017-02-13T00:03:35.803Z,1036.49
2017-02-13T00:04:36.523Z,1036.49
2017-02-13T00:05:37.229Z,1036.45
2017-02-13T00:06:37.929Z,1036.5
2017-02-13T00:07:38.634Z,1036.46
2017-02-13T00:08:39.367Z,1036.48
2017-02-13T00:09:40.104Z,1036.46
2017-02-13T00:10:40.787Z,1036.44
2017-02-13T00:11:41.500Z,1036.44
2017-02-13T00:12:42.185Z,1036.44
2017-02-13T00:13:42.913Z,1036.47
2017-02-13T00:14:43.632Z,1036.48
2017-02-13T00:15:44.367Z,1036.46
2017-02-13T00:16:45.168Z,1036.47
2017-02-13T00:17:45.902Z,1036.47
2017-02-13T00:18:46.640Z,1036.47
2017-02-13T00:19:47.347Z,1036.5
2017-02-13T00:20:48.101Z,1036.5
2017-02-13T00:21:48.818Z,1036.5
2017-02-13T00:22:49.612Z,1036.56
2017-02-13T00:23:50.294Z,1036.62
2017-02-13T00:24:50.977Z,1036.57
2017-02-13T00:25:51.669Z,1036.6
2017-02-13T00:26:52.386Z,1036.61
2017-02-13T00:27:53.083Z,1036.59
2017-02-13T00:28:53.858Z,1036.58
2017-02-13T00:29:54.561Z,1036.59
2017-02-13T00:30:55.261Z,1036.65
2017-02-13T00:31:55.964Z,1036.68
2017-02-13T00:32:56.750Z,1036.69
2017-02-13T00:33:57.455Z,1036.69
2017-02-13T00:34:58.161Z,1036.66
2017-02-13T00:35:58.865Z,1036.65
2017-02-13T00:36:59.561Z,1036.67
2017-02-13T00:38:00.349Z,1036.65
2017-02-13T00:39:01.174Z,1036.65
2017-02-13T00:40:01.897Z,1036.65
2017-02-13T00:41:02.641Z,1036.65
2017-02-13T00:42:03.315Z,1036.69
2017-02-13T00:43:04.039Z,1036.7
2017-02-13T00:44:04.842Z,1036.69
2017-02-13T00:45:05.570Z,1036.71
2017-02-13T00:46:07.130Z,1036.75
2017-02-13T00:47:07.841Z,1036.74
2017-02-13T00:48:08.676Z,1036.8
2017-02-13T00:49:09.457Z,1036.77
2017-02-13T00:50:10.217Z,1036.78
2017-02-13T00:51:10.942Z,1036.83
2017-02-13T00:52:11.661Z,1036.81
2017-02-13T00:53:12.380Z,1036.79
2017-02-13T00:54:13.167Z,1036.78
2017-02-13T00:55:13.911Z,1036.74
2017-02-13T00:56:14.605Z,1036.78
2017-02-13T00:57:15.327Z,1036.79
2017-02-13T00:58:16.072Z,1036.8
2017-02-13T00:59:16.783Z,1036.81
2017-02-13T01:00:17.503Z,1036.77
2017-02-13T01:01:18.200Z,1036.73
2017-02-13T01:02:18.919Z,1036.77
2017-02-13T01:03:19.679Z,1036.73
2017-02-13T01:04:20.453Z,1036.69
2017-02-13T01:05:21.166Z,1036.78
2017-02-13T01:06:21.888Z,1036.81
2017-02-13T01:07:22.603Z,1036.81
2017-02-13T01:08:23.382Z,1036.75
2017-02-13T01:09:24.096Z,1036.73
2017-02-13T01:10:24.837Z,1036.74
2017-02-13T01:11:25.529Z,1036.7
2017-02-13T01:12:26.251Z,1036.71
2017-02-13T01:13:26.979Z,1036.72
2017-02-13T01:14:27.677Z,1036.79
2017-02-13T01:15:28.405Z,1036.73
2017-02-13T01:16:29.116Z,1036.8
2017-02-13T01:17:29.840Z,1036.75
2017-02-13T01:18:30.545Z,1036.77
2017-02-13T01:19:31.233Z,1036.76
2017-02-13T01:20:31.924Z,1036.73
2017-02-13T01:21:32.605Z,1036.8
2017-02-13T01:22:33.304Z,1036.82
2017-02-13T01:23:34.006Z,1036.82
2017-02-13T01:24:34.722Z,1036.86
2017-02-13T01:25:35.406Z,1036.84
2017-02-13T01:26:36.108Z,1036.84
2017-02-13T01:27:36.822Z,1036.85
2017-02-13T01:28:37.527Z,1036.89
2017-02-13T01:29:38.243Z,1036.88
2017-02-13T01:30:38.957Z,1036.9
2017-02-13T01:31:39.694Z,1036.88
2017-02-13T01:32:40.533Z,1036.88
2017-02-13T01:33:41.261Z,1036.84
2017-02-13T01:34:41.954Z,1036.87
2017-02-13T01:35:42.693Z,1036.84
2017-02-13T01:36:43.401Z,1036.84
2017-02-13T01:37:44.122Z,1036.83
2017-02-13T01:38:44.929Z,1036.81
2017-02-13T01:39:45.626Z,1036.83
2017-02-13T01:40:46.319Z,1036.83
2017-02-13T01:41:47.020Z,1036.9
2017-02-13T01:42:47.742Z,1036.9
2017-02-13T01:43:48.450Z,1036.89
2017-02-13T01:44:49.149Z,1036.93
2017-02-13T01:45:49.852Z,1036.9
2017-02-13T01:46:50.570Z,1036.87
2017-02-13T01:47:51.263Z,1036.9
2017-02-13T01:48:51.955Z,1036.91
2017-02-13T01:49:52.674Z,1036.88
2017-02-13T01:50:53.404Z,1036.86
2017-02-13T01:51:54.135Z,1036.9
2017-02-13T01:52:54.800Z,1036.9
2017-02-13T01:53:55.517Z,1036.86
2017-02-13T01:54:56.219Z,1036.9
2017-02-13T01:55:56.925Z,1036.87
2017-02-13T01:56:57.628Z,1036.89
2017-02-13T01:57:58.333Z,1036.91
2017-02-13T01:58:59.018Z,1036.91
2017-02-13T01:59:59.723Z,1036.9
2017-02-13T02:01:00.429Z,1036.91
2017-02-13T02:02:01.110Z,1036.94
2017-02-13T02:03:01.810Z,1036.92
2017-02-13T02:04:02.554Z,1036.9
2017-02-13T02:05:03.432Z,1036.92
2017-02-13T02:06:04.128Z,1036.89
2017-02-13T02:07:04.846Z,1036.93
2017-02-13T02:08:05.558Z,1036.9
2017-02-13T02:09:06.251Z,1036.94
2017-02-13T02:10:06.944Z,1036.94
2017-02-13T02:11:07.656Z,1036.94
2017-02-13T02:12:08.360Z,1036.93
2017-02-13T02:13:09.091Z,1036.88
2017-02-13T02:14:09.787Z,1036.93
2017-02-13T02:15:10.554Z,1036.93
2017-02-13T02:16:11.320Z,1036.9
2017-02-13T02:17:12.031Z,1036.93
2017-02-13T02:18:12.719Z,1036.9
2017-02-13T02:19:13.459Z,1036.9
2017-02-13T02:20:14.202Z,1036.96
2017-02-13T02:21:14.894Z,1036.98
2017-02-13T02:22:15.590Z,1036.99
2017-02-13T02:23:16.320Z,1036.96
2017-02-13T02:24:17.031Z,1036.92
2017-02-13T02:25:17.736Z,1036.95
2017-02-13T02:26:18.439Z,1036.92
2017-02-13T02:27:19.162Z,1036.93
2017-02-13T02:28:19.855Z,1036.95
2017-02-13T02:29:20.558Z,1036.94
2017-02-13T02:30:21.291Z,1036.94
2017-02-13T02:31:21.993Z,1036.91
2017-02-13T02:32:22.734Z,1036.95
2017-02-13T02:33:23.437Z,1036.92
2017-02-13T02:34:24.139Z,1036.95
2017-02-13T02:35:24.810Z,1036.96
2017-02-13T02:36:25.512Z,1036.94
2017-02-13T02:37:26.204Z,1036.97
2017-02-13T02:38:26.897Z,1036.95
2017-02-13T02:39:27.630Z,1036.95
2017-02-13T02:40:28.320Z,1036.93
2017-02-13T02:41:29.010Z,1036.94
2017-02-13T02:42:29.755Z,1037
2017-02-13T02:43:30.474Z,1036.93
2017-02-13T02:44:31.181Z,1036.97
2017-02-13T02:45:31.950Z,1036.98
2017-02-13T02:46:32.643Z,1036.99
2017-02-13T02:47:33.353Z,1037.01
2017-02-13T02:48:34.067Z,1037
2017-02-13T02:49:34.765Z,1036.99
2017-02-13T02:50:35.514Z,1037.06
2017-02-13T02:51:36.219Z,1036.97
2017-02-13T02:52:36.905Z,1036.97
2017-02-13T02:53:37.614Z,1036.95
2017-02-13T02:54:38.294Z,1036.95
2017-02-13T02:55:38.991Z,1036.95
2017-02-13T02:56:39.685Z,1036.94
2017-02-13T02:57:40.394Z,1036.98
2017-02-13T02:58:41.150Z,1036.97
2017-02-13T02:59:41.850Z,1036.98
2017-02-13T03:00:42.564Z,1036.95
2017-02-13T03:01:43.277Z,1036.95
2017-02-13T03:02:43.985Z,1036.91
2017-02-13T03:03:44.688Z,1036.94
2017-02-13T03:04:45.391Z,1036.97
2017-02-13T03:05:46.096Z,1036.93
2017-02-13T03:06:46.790Z,1036.92
2017-02-13T03:07:47.496Z,1036.94
2017-02-13T03:08:48.203Z,1036.99
2017-02-13T03:09:48.917Z,1036.94
2017-02-13T03:10:49.618Z,1036.98
2017-02-13T03:11:50.311Z,1036.94
2017-02-13T03:12:51.028Z,1036.93
2017-02-13T03:13:51.714Z,1036.94
2017-02-13T03:14:52.428Z,1036.89
2017-02-13T03:15:53.165Z,1036.94
2017-02-13T03:16:53.867Z,1036.92
2017-02-13T03:17:54.598Z,1036.94
2017-02-13T03:18:55.320Z,1036.96
2017-02-13T03:19:56.031Z,1036.94
2017-02-13T03:20:56.718Z,1036.93
2017-02-13T03:21:57.438Z,1036.92
2017-02-13T03:22:58.172Z,1036.89
2017-02-13T03:23:58.848Z,1036.96
2017-02-13T03:24:59.563Z,1037
2017-02-13T03:26:00.267Z,1037
2017-02-13T03:27:00.966Z,1036.98
2017-02-13T03:28:01.657Z,1036.93
2017-02-13T03:29:02.373Z,1036.98
2017-02-13T03:30:03.091Z,1036.95
2017-02-13T03:31:03.809Z,1036.94
2017-02-13T03:32:04.511Z,1036.95
2017-02-13T03:33:05.207Z,1036.96
2017-02-13T03:34:05.916Z,1036.94
2017-02-13T03:35:06.631Z,1036.92
2017-02-13T03:36:07.322Z,1036.9
2017-02-13T03:37:07.986Z,1036.95
2017-02-13T03:38:08.688Z,1036.92
2017-02-13T03:39:09.433Z,1036.98
2017-02-13T03:40:10.163Z,1036.98
2017-02-13T03:41:10.883Z,1036.94
2017-02-13T03:42:11.608Z,1036.96
2017-02-13T03:43:12.291Z,1036.94
2017-02-13T03:44:12.981Z,1036.98
2017-02-13T03:45:13.685Z,1037.03
2017-02-13T03:46:14.417Z,1037.01
2017-02-13T03:47:15.118Z,1036.99
2017-02-13T03:48:15.840Z,1037.01
2017-02-13T03:49:16.541Z,1036.92
2017-02-13T03:50:17.284Z,1036.94
2017-02-13T03:51:17.989Z,1036.92
2017-02-13T03:52:18.690Z,1036.92
2017-02-13T03:53:19.400Z,1036.99
2017-02-13T03:54:20.085Z,1036.94
2017-02-13T03:55:20.756Z,1037.03
2017-02-13T03:56:21.461Z,1037.01
2017-02-13T03:57:22.245Z,1037
2017-02-13T03:58:23.014Z,1037.03
2017-02-13T03:59:23.702Z,1037.03
2017-02-13T04:00:24.408Z,1037.07
2017-02-13T04:01:25.141Z,1037.05
2017-02-13T04:02:25.814Z,1037.08
2017-02-13T04:03:26.529Z,1037.05
2017-02-13T04:04:27.542Z,1037.07
2017-02-13T04:05:28.235Z,1037.04
2017-02-13T04:06:29.022Z,1037.01
2017-02-13T04:07:29.732Z,1037.03
2017-02-13T04:08:30.422Z,1037.09
2017-02-13T04:09:31.137Z,1037.04
2017-02-13T04:10:31.849Z,1037.06
2017-02-13T04:11:32.566Z,1037.05
2017-02-13T04:12:33.284Z,1037.08
2017-02-13T04:13:33.994Z,1037.06
2017-02-13T04:14:34.698Z,1037.02
2017-02-13T04:15:35.396Z,1036.99
2017-02-13T04:16:36.117Z,1036.96
2017-02-13T04:17:36.800Z,1037.04
2017-02-13T04:18:37.488Z,1036.97
2017-02-13T04:19:38.180Z,1037.04
2017-02-13T04:20:38.911Z,1036.99
2017-02-13T04:21:39.610Z,1037
2017-02-13T04:22:40.384Z,1036.99
2017-02-13T04:23:41.084Z,1036.99
2017-02-13T04:24:41.779Z,1036.95
2017-02-13T04:25:42.467Z,1036.96
2017-02-13T04:26:43.148Z,1037.06
2017-02-13T04:27:43.859Z,1036.97
2017-02-13T04:28:44.564Z,1037
2017-02-13T04:29:45.258Z,1036.94
2017-02-13T04:30:45.955Z,1036.92
2017-02-13T04:31:46.657Z,1036.95
2017-02-13T04:32:47.354Z,1036.91
2017-02-13T04:33:48.078Z,1036.98
2017-02-13T04:34:48.769Z,1036.92
2017-02-13T04:35:49.480Z,1036.94
2017-02-13T04:36:50.171Z,1036.97
2017-02-13T04:37:50.868Z,1036.97
2017-02-13T04:38:51.578Z,1037.01
2017-02-13T04:39:52.273Z,1036.98
2017-02-13T04:40:52.994Z,1037.02
2017-02-13T04:41:53.694Z,1036.96
2017-02-13T04:42:54.383Z,1036.96
2017-02-13T04:43:55.108Z,1037.01
2017-02-13T04:44:55.846Z,1037.03
2017-02-13T04:45:56.567Z,1037.04
2017-02-13T04:46:57.261Z,1037.02
2017-02-13T04:47:58.000Z,1036.99
2017-02-13T04:48:58.726Z,1037.01
2017-02-13T04:49:59.416Z,1037.04
2017-02-13T04:51:00.106Z,1037
2017-02-13T04:52:00.821Z,1037.02
2017-02-13T04:53:01.501Z,1037.06
2017-02-13T04:54:02.213Z,1037.02
2017-02-13T04:55:02.895Z,1037.03
2017-02-13T04:56:03.582Z,1037.02
2017-02-13T04:57:04.273Z,1037.01
2017-02-13T04:58:05.003Z,1037.05
2017-02-13T04:59:05.687Z,1036.97
2017-02-13T05:00:06.420Z,1036.96
2017-02-13T05:01:07.079Z,1037
2017-02-13T05:02:07.779Z,1036.97
2017-02-13T05:03:08.472Z,1037
2017-02-13T05:04:09.165Z,1037.02
2017-02-13T05:05:09.869Z,1036.95
2017-02-13T05:06:10.587Z,1036.97
2017-02-13T05:07:11.266Z,1036.97
2017-02-13T05:08:11.966Z,1036.94
2017-02-13T05:09:12.686Z,1036.97
2017-02-13T05:10:13.411Z,1036.95
2017-02-13T05:11:14.092Z,1037.04
2017-02-13T05:12:14.798Z,1037.02
2017-02-13T05:13:15.483Z,1037.02
2017-02-13T05:14:16.192Z,1036.99
2017-02-13T05:15:16.877Z,1036.96
2017-02-13T05:16:17.586Z,1036.96
2017-02-13T05:17:18.311Z,1036.97
2017-02-13T05:18:19.009Z,1036.99
2017-02-13T05:19:19.706Z,1036.92
2017-02-13T05:20:21.283Z,1036.95
2017-02-13T05:21:22.001Z,1036.92
2017-02-13T05:22:22.714Z,1036.96
2017-02-13T05:23:23.431Z,1036.92
2017-02-13T05:24:24.136Z,1036.93
2017-02-13T05:25:24.870Z,1036.92
2017-02-13T05:26:25.578Z,1036.91
2017-02-13T05:27:26.271Z,1036.94
2017-02-13T05:28:26.989Z,1036.93
2017-02-13T05:29:27.666Z,1036.94
2017-02-13T05:30:28.359Z,1036.98
2017-02-13T05:31:29.041Z,1036.94
2017-02-13T05:32:29.747Z,1036.94
2017-02-13T05:33:30.452Z,1036.94
2017-02-13T05:34:31.148Z,1036.96
2017-02-13T05:35:31.861Z,1036.92
2017-02-13T05:36:32.564Z,1036.93
2017-02-13T05:37:33.304Z,1036.92
2017-02-13T05:38:34.005Z,1036.94
2017-02-13T05:39:34.692Z,1036.93
2017-02-13T05:40:35.382Z,1036.96
2017-02-13T05:41:36.108Z,1036.94
2017-02-13T05:42:36.786Z,1036.98
2017-02-13T05:43:37.475Z,1036.93
2017-02-13T05:44:38.182Z,1036.94
2017-02-13T05:45:38.861Z,1036.93
2017-02-13T05:46:39.567Z,1036.9
2017-02-13T05:47:40.273Z,1036.87
2017-02-13T05:48:40.978Z,1036.86
2017-02-13T05:49:41.693Z,1036.86
2017-02-13T05:50:42.370Z,1036.88
2017-02-13T05:51:43.039Z,1036.85
2017-02-13T05:52:43.751Z,1036.87
2017-02-13T05:53:44.452Z,1036.83
2017-02-13T05:54:45.136Z,1036.79
2017-02-13T05:55:45.838Z,1036.78
2017-02-13T05:56:46.551Z,1036.85
2017-02-13T05:57:47.253Z,1036.91
2017-02-13T05:58:47.946Z,1036.83
2017-02-13T05:59:48.648Z,1036.84
2017-02-13T06:00:49.344Z,1036.85
2017-02-13T06:01:50.108Z,1036.84
2017-02-13T06:02:50.819Z,1036.86
2017-02-13T06:03:51.533Z,1036.83
2017-02-13T06:04:52.226Z,1036.87
2017-02-13T06:05:52.919Z,1036.9
2017-02-13T06:06:53.613Z,1036.94
2017-02-13T06:07:54.307Z,1036.89
2017-02-13T06:08:55.009Z,1036.91
2017-02-13T06:09:55.697Z,1036.95
2017-02-13T06:10:56.401Z,1036.93
2017-02-13T06:11:57.183Z,1036.92
2017-02-13T06:12:57.903Z,1036.91
2017-02-13T06:13:58.590Z,1036.9
2017-02-13T06:14:59.293Z,1036.89
2017-02-13T06:15:59.995Z,1036.82
2017-02-13T06:17:00.696Z,1036.89
2017-02-13T06:18:01.371Z,1036.84
2017-02-13T06:19:02.069Z,1036.83
2017-02-13T06:20:02.758Z,1036.85
2017-02-13T06:21:03.459Z,1036.89
2017-02-13T06:22:04.224Z,1036.89
2017-02-13T06:23:04.934Z,1036.88
2017-02-13T06:24:05.698Z,1036.94
2017-02-13T06:25:06.393Z,1036.92
2017-02-13T06:26:07.405Z,1036.94
2017-02-13T06:27:08.090Z,1036.96
2017-02-13T06:28:08.804Z,1036.95
2017-02-13T06:29:09.505Z,1036.98
2017-02-13T06:30:10.228Z,1036.93
2017-02-13T06:31:10.917Z,1036.94
2017-02-13T06:32:11.587Z,1036.96
2017-02-13T06:33:12.262Z,1036.96
2017-02-13T06:34:12.935Z,1036.94
2017-02-13T06:35:13.608Z,1036.95
2017-02-13T06:36:14.283Z,1037.02
2017-02-13T06:37:14.979Z,1037.01
2017-02-13T06:38:15.692Z,1037
2017-02-13T06:39:16.393Z,1037.12
2017-02-13T06:40:17.113Z,1037.05
2017-02-13T06:41:17.847Z,1037.1
2017-02-13T06:42:18.545Z,1037.07
2017-02-13T06:43:19.240Z,1037.09
2017-02-13T06:44:19.925Z,1037.11
2017-02-13T06:45:20.625Z,1037.07
2017-02-13T06:46:21.317Z,1037.16
2017-02-13T06:47:22.029Z,1037.16
2017-02-13T06:48:22.763Z,1037.23
2017-02-13T06:49:23.472Z,1037.19
2017-02-13T06:50:24.156Z,1037.2
2017-02-13T06:51:24.851Z,1037.21
2017-02-13T06:52:25.545Z,1037.22
2017-02-13T06:53:26.251Z,1037.23
2017-02-13T06:54:26.970Z,1037.29
2017-02-13T06:55:27.681Z,1037.27
2017-02-13T06:56:28.373Z,1037.32
2017-02-13T06:57:29.115Z,1037.32
2017-02-13T06:58:29.833Z,1037.35
2017-02-13T06:59:30.526Z,1037.37
2017-02-13T07:00:31.217Z,1037.27
2017-02-13T07:01:31.907Z,1037.23
2017-02-13T07:02:32.582Z,1037.31
2017-02-13T07:03:33.281Z,1037.27
2017-02-13T07:04:33.983Z,1037.26
2017-02-13T07:05:34.705Z,1037.23
2017-02-13T07:06:35.418Z,1037.25
2017-02-13T07:07:36.102Z,1037.28
2017-02-13T07:08:36.807Z,1037.23
2017-02-13T07:09:37.491Z,1037.29
2017-02-13T07:10:38.179Z,1037.21
2017-02-13T07:11:38.921Z,1037.26
2017-02-13T07:12:39.641Z,1037.28
2017-02-13T07:13:40.340Z,1037.21
2017-02-13T07:14:41.065Z,1037.24
2017-02-13T07:15:41.772Z,1037.22
2017-02-13T07:16:42.475Z,1037.26
2017-02-13T07:17:43.166Z,1037.34
2017-02-13T07:18:43.854Z,1037.26
2017-02-13T07:19:44.558Z,1037.32
2017-02-13T07:20:45.297Z,1037.26
2017-02-13T07:21:45.969Z,1037.31
2017-02-13T07:22:46.655Z,1037.33
2017-02-13T07:23:47.377Z,1037.36
2017-02-13T07:24:48.083Z,1037.39
2017-02-13T07:25:48.778Z,1037.37
2017-02-13T07:26:49.477Z,1037.41
2017-02-13T07:27:50.166Z,1037.41
2017-02-13T07:28:50.861Z,1037.42
2017-02-13T07:29:51.573Z,1037.41
2017-02-13T07:30:52.249Z,1037.41
2017-02-13T07:31:52.965Z,1037.38
2017-02-13T07:32:53.666Z,1037.44
2017-02-13T07:33:54.379Z,1037.43
2017-02-13T07:34:55.090Z,1037.41
2017-02-13T07:35:55.811Z,1037.4
2017-02-13T07:36:56.536Z,1037.43
2017-02-13T07:37:57.213Z,1037.37
2017-02-13T07:38:57.948Z,1037.38
2017-02-13T07:39:58.661Z,1037.4
2017-02-13T07:40:59.347Z,1037.44
2017-02-13T07:42:00.050Z,1037.41
2017-02-13T07:43:00.766Z,1037.45
2017-02-13T07:44:01.464Z,1037.46
2017-02-13T07:45:02.246Z,1037.5
2017-02-13T07:46:02.932Z,1037.47
2017-02-13T07:47:03.662Z,1037.47
2017-02-13T07:48:04.366Z,1037.48
2017-02-13T07:49:05.092Z,1037.45
2017-02-13T07:50:05.797Z,1037.47
2017-02-13T07:51:06.519Z,1037.41
2017-02-13T07:52:07.278Z,1037.41
2017-02-13T07:53:07.973Z,1037.42
2017-02-13T07:54:08.685Z,1037.37
2017-02-13T07:55:09.389Z,1037.41
2017-02-13T07:56:10.095Z,1037.38
2017-02-13T07:57:10.791Z,1037.45
2017-02-13T07:58:11.510Z,1037.49
2017-02-13T07:59:12.218Z,1037.41
2017-02-13T08:00:12.929Z,1037.44
2017-02-13T08:01:13.627Z,1037.5
2017-02-13T08:02:14.351Z,1037.48
2017-02-13T08:03:15.053Z,1037.5
2017-02-13T08:04:15.726Z,1037.53
2017-02-13T08:05:16.415Z,1037.53
2017-02-13T08:06:17.119Z,1037.55
2017-02-13T08:07:17.832Z,1037.55
2017-02-13T08:08:18.524Z,1037.59
2017-02-13T08:09:19.222Z,1037.57
2017-02-13T08:10:19.920Z,1037.62
2017-02-13T08:11:20.634Z,1037.61
2017-02-13T08:12:21.323Z,1037.58
2017-02-13T08:13:22.045Z,1037.62
2017-02-13T08:14:22.731Z,1037.57
2017-02-13T08:15:23.433Z,1037.58
2017-02-13T08:16:24.154Z,1037.56
2017-02-13T08:17:24.866Z,1037.62
2017-02-13T08:18:25.571Z,1037.63
2017-02-13T08:19:26.300Z,1037.59
2017-02-13T08:20:27.070Z,1037.63
2017-02-13T08:21:27.822Z,1037.55
2017-02-13T08:22:28.560Z,1037.58
2017-02-13T08:23:29.254Z,1037.57
2017-02-13T08:24:29.981Z,1037.54
2017-02-13T08:25:30.668Z,1037.52
2017-02-13T08:26:31.464Z,1037.56
2017-02-13T08:27:32.117Z,1037.58
2017-02-13T08:28:33.043Z,1037.55
2017-02-13T08:29:33.766Z,1037.58
2017-02-13T08:30:34.504Z,1037.61
2017-02-13T08:31:35.202Z,1037.62
2017-02-13T08:32:35.899Z,1037.67
2017-02-13T08:33:36.594Z,1037.66
2017-02-13T08:34:37.277Z,1037.7
2017-02-13T08:35:38.006Z,1037.65
2017-02-13T08:36:38.721Z,1037.61
2017-02-13T08:37:39.463Z,1037.63
2017-02-13T08:38:40.169Z,1037.66
2017-02-13T08:39:40.865Z,1037.62
2017-02-13T08:40:41.610Z,1037.62
2017-02-13T08:41:42.459Z,1037.64
2017-02-13T08:42:43.308Z,1037.64
2017-02-13T08:43:44.015Z,1037.62
2017-02-13T08:44:44.723Z,1037.72
2017-02-13T08:45:45.456Z,1037.66
2017-02-13T08:46:46.163Z,1037.69
2017-02-13T08:47:46.888Z,1037.72
2017-02-13T08:48:47.665Z,1037.7
2017-02-13T08:49:48.361Z,1037.72
2017-02-13T08:50:49.048Z,1037.69
2017-02-13T08:51:49.760Z,1037.76
2017-02-13T08:52:50.481Z,1037.84
2017-02-13T08:53:51.172Z,1037.77
2017-02-13T08:54:51.886Z,1037.71
2017-02-13T08:55:52.641Z,1037.75
2017-02-13T08:56:53.322Z,1037.76
2017-02-13T08:57:54.167Z,1037.71
2017-02-13T08:58:54.958Z,1037.69
2017-02-13T08:59:55.649Z,1037.56
2017-02-13T09:00:56.350Z,1037.63
2017-02-13T09:01:57.049Z,1037.65
2017-02-13T09:02:57.746Z,1037.69
2017-02-13T09:03:58.478Z,1037.7
2017-02-13T09:04:59.190Z,1037.68
2017-02-13T09:05:59.884Z,1037.71
2017-02-13T09:07:00.597Z,1037.71
2017-02-13T09:08:01.304Z,1037.68
2017-02-13T09:09:02.040Z,1037.72
2017-02-13T09:10:02.759Z,1037.65
2017-02-13T09:11:03.485Z,1037.62
2017-02-13T09:12:04.229Z,1037.62
2017-02-13T09:13:04.946Z,1037.59
2017-02-13T09:14:05.633Z,1037.56
2017-02-13T09:15:06.350Z,1037.6
2017-02-13T09:16:07.066Z,1037.62
2017-02-13T09:17:07.779Z,1037.55
2017-02-13T09:18:08.488Z,1037.51
2017-02-13T09:19:09.190Z,1037.5
2017-02-13T09:20:09.914Z,1037.47
2017-02-13T09:21:10.623Z,1037.46
2017-02-13T09:22:11.316Z,1037.58
2017-02-13T09:23:12.039Z,1037.56
2017-02-13T09:24:12.731Z,1037.62
2017-02-13T09:25:13.456Z,1037.6
2017-02-13T09:26:14.165Z,1037.58
2017-02-13T09:27:14.889Z,1037.59
2017-02-13T09:28:15.591Z,1037.62
2017-02-13T09:29:16.296Z,1037.57
2017-02-13T09:30:16.995Z,1037.63
2017-02-13T09:31:17.728Z,1037.55
2017-02-13T09:32:18.420Z,1037.64
2017-02-13T09:33:19.157Z,1037.62
2017-02-13T09:34:19.879Z,1037.56
2017-02-13T09:35:20.606Z,1037.63
2017-02-13T09:36:21.304Z,1037.63
2017-02-13T09:37:22.031Z,1037.64
2017-02-13T09:38:22.774Z,1037.69
2017-02-13T09:39:23.484Z,1037.7
2017-02-13T09:40:24.191Z,1037.73
2017-02-13T09:41:24.899Z,1037.73
2017-02-13T09:42:25.599Z,1037.72
2017-02-13T09:43:26.294Z,1037.71
2017-02-13T09:44:27.009Z,1037.72
2017-02-13T09:45:27.718Z,1037.68
2017-02-13T09:46:28.450Z,1037.73
2017-02-13T09:47:29.153Z,1037.77
2017-02-13T09:48:29.856Z,1037.74
2017-02-13T09:49:30.607Z,1037.8
2017-02-13T09:50:31.320Z,1037.81
2017-02-13T09:51:32.058Z,1037.82
2017-02-13T09:52:32.768Z,1037.81
2017-02-13T09:53:33.495Z,1037.79
2017-02-13T09:54:34.217Z,1037.84
2017-02-13T09:55:34.911Z,1037.91
2017-02-13T09:56:35.635Z,1037.8
2017-02-13T09:57:36.363Z,1037.83
2017-02-13T09:58:37.062Z,1037.77
2017-02-13T09:59:37.785Z,1037.77
2017-02-13T10:00:38.516Z,1037.8
2017-02-13T10:01:39.219Z,1037.79
2017-02-13T10:02:39.954Z,1037.73
2017-02-13T10:03:40.644Z,1037.77
2017-02-13T10:04:41.354Z,1037.77
2017-02-13T10:05:42.094Z,1037.73
2017-02-13T10:06:42.770Z,1037.74
2017-02-13T10:07:43.488Z,1037.82
2017-02-13T10:08:44.192Z,1037.78
2017-02-13T10:09:44.911Z,1037.78
2017-02-13T10:10:45.598Z,1037.81
2017-02-13T10:11:46.324Z,1037.78
2017-02-13T10:12:47.025Z,1037.77
2017-02-13T10:13:47.728Z,1037.72
2017-02-13T10:14:48.443Z,1037.73
2017-02-13T10:15:49.183Z,1037.69
2017-02-13T10:16:49.930Z,1037.76
2017-02-13T10:17:50.621Z,1037.76
2017-02-13T10:18:51.441Z,1037.77
2017-02-13T10:19:52.176Z,1037.74
2017-02-13T10:20:52.930Z,1037.75
2017-02-13T10:21:53.657Z,1037.71
2017-02-13T10:22:54.350Z,1037.77
2017-02-13T10:23:55.053Z,1037.75
2017-02-13T10:24:55.767Z,1037.74
2017-02-13T10:25:56.443Z,1037.74
2017-02-13T10:26:57.166Z,1037.71
2017-02-13T10:27:57.893Z,1037.77
2017-02-13T10:28:58.595Z,1037.75
2017-02-13T10:29:59.318Z,1037.75
2017-02-13T10:31:00.025Z,1037.72
2017-02-13T10:32:00.734Z,1037.68
2017-02-13T10:33:01.441Z,1037.73
2017-02-13T10:34:02.141Z,1037.66
2017-02-13T10:35:02.870Z,1037.68
2017-02-13T10:36:03.608Z,1037.65
2017-02-13T10:37:04.358Z,1037.58
2017-02-13T10:38:05.049Z,1037.61
2017-02-13T10:39:05.781Z,1037.68
2017-02-13T10:40:06.490Z,1037.71
2017-02-13T10:41:07.198Z,1037.72
2017-02-13T10:42:07.884Z,1037.69
2017-02-13T10:43:08.596Z,1037.62
2017-02-13T10:44:09.292Z,1037.67
2017-02-13T10:45:09.990Z,1037.75
2017-02-13T10:46:10.720Z,1037.65
2017-02-13T10:47:11.421Z,1037.66
2017-02-13T10:48:12.112Z,1037.65
2017-02-13T10:49:12.869Z,1037.58
2017-02-13T10:50:13.587Z,1037.52
2017-02-13T10:51:14.305Z,1037.53
2017-02-13T10:52:15.007Z,1037.56
2017-02-13T10:53:15.718Z,1037.48
2017-02-13T10:54:16.458Z,1037.45
2017-02-13T10:55:17.194Z,1037.48
2017-02-13T10:56:17.945Z,1037.45
2017-02-13T10:57:18.659Z,1037.43
2017-02-13T10:58:19.356Z,1037.36
2017-02-13T10:59:20.065Z,1037.36
2017-02-13T11:00:20.763Z,1037.36
2017-02-13T11:01:21.491Z,1037.38
2017-02-13T11:02:22.206Z,1037.33
2017-02-13T11:03:22.982Z,1037.36
2017-02-13T11:04:23.736Z,1037.31
2017-02-13T11:05:24.459Z,1037.3
2017-02-13T11:06:25.180Z,1037.32
2017-02-13T11:07:25.908Z,1037.29
2017-02-13T11:08:26.620Z,1037.27
2017-02-13T11:09:27.337Z,1037.25
2017-02-13T11:10:28.065Z,1037.27
2017-02-13T11:11:28.782Z,1037.26
2017-02-13T11:12:29.525Z,1037.22
2017-02-13T11:13:30.257Z,1037.23
2017-02-13T11:14:30.972Z,1037.24
2017-02-13T11:15:31.688Z,1037.28
2017-02-13T11:16:32.403Z,1037.26
2017-02-13T11:17:33.107Z,1037.24
2017-02-13T11:18:33.814Z,1037.26
2017-02-13T11:19:34.544Z,1037.24
2017-02-13T11:20:35.270Z,1037.22
2017-02-13T11:21:36.000Z,1037.25
2017-02-13T11:22:36.706Z,1037.22
2017-02-13T11:23:37.470Z,1037.26
2017-02-13T11:24:38.188Z,1037.2
2017-02-13T11:25:38.927Z,1037.23
2017-02-13T11:26:39.653Z,1037.25
2017-02-13T11:27:40.369Z,1037.26
2017-02-13T11:28:41.068Z,1037.2
2017-02-13T11:29:41.832Z,1037.12
2017-02-13T11:30:42.508Z,1037.11
2017-02-13T11:31:43.260Z,1037.14
2017-02-13T11:32:43.969Z,1037.1
2017-02-13T11:33:44.686Z,1037.15
2017-02-13T11:34:45.396Z,1037.13
2017-02-13T11:35:46.128Z,1037.12
2017-02-13T11:36:46.952Z,1037.14
2017-02-13T11:37:47.744Z,1037.09
2017-02-13T11:38:48.475Z,1037.14
2017-02-13T11:39:49.182Z,1037.14
2017-02-13T11:40:49.891Z,1037.11
2017-02-13T11:41:50.580Z,1037.08
2017-02-13T11:42:51.291Z,1037.04
2017-02-13T11:43:52.000Z,1037.02
2017-02-13T11:44:52.743Z,1037.08
2017-02-13T11:45:53.478Z,1037.09
2017-02-13T11:46:54.213Z,1037.08
2017-02-13T11:47:54.931Z,1037.02
2017-02-13T11:48:55.684Z,1037.08
2017-02-13T11:49:56.419Z,1037.02
2017-02-13T11:50:57.134Z,1037.02
2017-02-13T11:51:57.840Z,1037.03
2017-02-13T11:52:58.550Z,1037.01
2017-02-13T11:53:59.250Z,1036.98
2017-02-13T11:54:59.952Z,1037
2017-02-13T11:56:00.685Z,1036.93
2017-02-13T11:57:01.403Z,1036.89
2017-02-13T11:58:02.099Z,1036.92
2017-02-13T11:59:02.811Z,1036.97
2017-02-13T12:00:03.527Z,1036.96
2017-02-13T12:01:04.244Z,1036.93
2017-02-13T12:02:04.958Z,1036.99
2017-02-13T12:03:05.667Z,1036.94
2017-02-13T12:04:06.358Z,1037.02
2017-02-13T12:05:07.082Z,1036.95
2017-02-13T12:06:07.787Z,1036.94
2017-02-13T12:07:08.475Z,1036.97
2017-02-13T12:08:09.227Z,1036.97
2017-02-13T12:09:09.907Z,1036.98
2017-02-13T12:10:10.624Z,1036.96
2017-02-13T12:11:11.353Z,1036.96
2017-02-13T12:12:12.058Z,1036.92
2017-02-13T12:13:12.766Z,1036.93
2017-02-13T12:14:13.466Z,1036.92
2017-02-13T12:15:14.207Z,1036.88
2017-02-13T12:16:14.931Z,1036.9
2017-02-13T12:17:15.654Z,1036.88